Tampa International Airport
KTPA : now visible

Airfield :











YOU CAN JOIN US ON...

 
LOGIN :

Register | Disclaimer

   EN    FR    IT 

 









Legend :    VFR   Marginal VFR   IFR   Intensive IFR   Very Intensive IFR
Visi :
Ceiling :
>= 8 km
>= 3000ft
5 to 8 km
1000 to 3000 ft
1500m to 5 km
500 to 1000 ft
800 to 1500m
200 to 500 ft
< 800m
< 200 ft
Symbols :   Thunderstorms  Fog  Heavy snow  Heavy precipitations  Wind > 20 kt







- Airport Elevation : 26 ft
- IATA code : TPA


KTPA - Tampa International

CURRENT METAR :
  • 260153Z 03006KT 10SM BKN049 BKN065 OVC110 31/24 A2995 RMK AO2 SLP142 T03060239 $

EXPIRED METARs :
  • 260053Z 35007KT 10SM BKN050 31/25 A2992 RMK AO2 SLP132 FRQ LTGIC DSNT SE-S CB DSNT SE-S T03060250 $
  • 252353Z 29005KT 10SM FEW050TCU FEW350 32/25 A2990 RMK AO2 SLP124 CB DSNT N TCU N AND DSNT S T03170250 10356 20317 55000 $

TAF KTPA
Valid from the 26 at 00:00 until the 27 at 06:00 UTC


252320Z 2600/2706 03004KT P6SM SCT050 BKN250
FM261200 09005KT P6SM SCT015 BKN100
FM261800 23008KT P6SM VCTS SCT030CB BKN080
FM270000 28005KT P6SM SCT050 BKN110
FM270300 VRB03KT P6SM FEW040 SCT250
No reported NOTAMs for that airfield.



MET'MAP, your aeronautical weather chart ! - Copyright ORBIFLY December 2007 - Disclaimer

ORBIFLY MET'MAP TEAM :

Programming & Development : Alexandra Zaïnal
Concept & Development : Baudouin d'Aumeries
Co-Development & Prog : Marc-Olivier Méhu
Technical & hardware support : Manuel Goepfert

Contact : metmap@orbifly.com




SOURCES & CREDITS :

   NOAA       Earth
Advisory